Time;durP1;ratioP1;P1;durP2;ratioP2;P2;SDS_P1;SDS_P2;PMS_P1;PMS_P2;Temp;Humidity;BMP_temperature;BMP_pressure;BME280_temperature;BME280_humidity;BME280_pressure;Samples;Min_cycle;Max_cycle;Signal;HPM_P1;HPM_P2
2021/12/14 00:00:45;;;;;;;14.50;11.37;;;;;;;3.83;100.00;99158.78;4995221;28;20205;-71
2021/12/14 00:03:16;;;;;;;13.00;10.23;;;;;;;3.80;100.00;99156.34;4993568;28;20219;-72
2021/12/14 00:05:44;;;;;;;13.03;9.67;;;;;;;3.76;100.00;99160.94;4995194;28;20328;-69
2021/12/14 00:08:15;;;;;;;13.80;10.83;;;;;;;3.81;100.00;99152.78;4981139;28;20221;-71
2021/12/14 00:10:56;;;;;;;16.17;11.17;;;;;;;3.89;100.00;99149.69;4969957;28;20642;-69
2021/12/14 00:13:41;;;;;;;14.03;10.53;;;;;;;3.87;100.00;99154.19;4980805;28;21133;-71
2021/12/14 00:16:11;;;;;;;17.63;12.10;;;;;;;3.86;100.00;99152.50;4995571;28;20632;-71
2021/12/14 00:18:42;;;;;;;16.80;11.23;;;;;;;3.80;100.00;99153.72;4992398;28;20905;-70
2021/12/14 00:21:19;;;;;;;13.90;10.90;;;;;;;3.75;100.00;99147.88;4996243;28;20212;-73
2021/12/14 00:24:09;;;;;;;15.80;11.30;;;;;;;3.78;100.00;99152.13;4979627;28;20350;-69
2021/12/14 00:26:42;;;;;;;13.03;10.80;;;;;;;3.83;100.00;99158.78;4960117;28;20350;-69
2021/12/14 00:29:14;;;;;;;13.13;9.90;;;;;;;3.83;100.00;99156.16;4981188;28;20842;-71
2021/12/14 00:31:43;;;;;;;14.43;10.67;;;;;;;3.80;100.00;99153.72;4992264;28;20808;-71
2021/12/14 00:34:21;;;;;;;13.10;10.33;;;;;;;3.79;100.00;99161.69;4995395;28;20233;-71
2021/12/14 00:36:49;;;;;;;13.33;10.70;;;;;;;3.83;100.00;99157.94;4995281;28;20207;-70
2021/12/14 00:39:18;;;;;;;11.93;9.57;;;;;;;3.84;100.00;99154.38;4981812;28;20227;-73
2021/12/14 00:41:46;;;;;;;14.27;10.57;;;;;;;3.84;100.00;99151.75;4969617;28;20677;-69
2021/12/14 00:44:14;;;;;;;10.63;9.00;;;;;;;3.78;100.00;99155.56;4981527;28;20263;-69
2021/12/14 00:46:42;;;;;;;11.07;9.83;;;;;;;3.82;100.00;99164.09;4990994;28;20608;-71
2021/12/14 00:49:13;;;;;;;11.20;9.67;;;;;;;3.85;100.00;99156.91;4992812;28;20331;-71
2021/12/14 00:51:42;;;;;;;9.03;7.83;;;;;;;3.81;100.00;99157.19;4992890;28;20201;-70
2021/12/14 00:54:13;;;;;;;9.07;8.17;;;;;;;3.74;100.00;99160.19;4981849;28;20288;-72
2021/12/14 00:56:45;;;;;;;8.53;7.73;;;;;;;3.80;100.00;99161.59;4994652;28;20203;-69
2021/12/14 00:59:13;;;;;;;9.83;7.37;;;;;;;3.73;100.00;99165.50;4961213;28;20217;-72
2021/12/14 01:01:44;;;;;;;6.47;5.87;;;;;;;3.70;100.00;99166.53;4989942;28;20296;-71
2021/12/14 01:04:17;;;;;;;6.50;5.90;;;;;;;3.69;100.00;99166.63;4985992;28;20228;-72
2021/12/14 01:06:46;;;;;;;6.97;4.93;;;;;;;3.70;100.00;99149.94;4993573;28;20212;-71
2021/12/14 01:09:17;;;;;;;5.83;5.23;;;;;;;3.71;100.00;99149.88;4981327;28;20960;-70
2021/12/14 01:11:47;;;;;;;5.00;4.30;;;;;;;3.62;100.00;99147.81;4992955;28;20228;-71
2021/12/14 01:14:18;;;;;;;5.20;4.80;;;;;;;3.70;100.00;99145.56;4962786;28;20228;-70
2021/12/14 01:16:53;;;;;;;4.83;4.43;;;;;;;3.59;100.00;99143.56;4981901;28;20211;-69
2021/12/14 01:19:26;;;;;;;4.80;4.40;;;;;;;3.64;100.00;99145.94;4992328;28;20286;-71
2021/12/14 01:22:19;;;;;;;4.90;4.50;;;;;;;3.50;100.00;99153.75;4994760;28;20201;-72
2021/12/14 01:25:07;;;;;;;4.57;4.17;;;;;;;3.58;100.00;99144.50;4981611;28;20235;-72
2021/12/14 01:27:42;;;;;;;5.20;4.80;;;;;;;3.50;100.00;99151.13;4993108;28;20209;-69
2021/12/14 01:30:16;;;;;;;4.83;4.30;;;;;;;3.47;100.00;99153.00;4965493;28;20636;-70
2021/12/14 01:32:47;;;;;;;4.67;4.27;;;;;;;3.61;100.00;99151.38;4990821;28;20215;-71
2021/12/14 01:35:21;;;;;;;5.13;4.73;;;;;;;3.56;100.00;99156.00;4992093;28;20217;-71
2021/12/14 01:38:01;;;;;;;4.60;4.20;;;;;;;3.51;100.00;99160.69;4994543;28;20204;-69
2021/12/14 01:43:23;;;;;;;6.17;5.40;;;;;;;3.45;100.00;99157.50;4990962;28;20205;-71
2021/12/14 01:45:51;;;;;;;6.17;5.57;;;;;;;3.43;100.00;99154.13;4966056;28;20217;-71
2021/12/14 01:48:19;;;;;;;6.13;5.63;;;;;;;3.44;100.00;99153.19;4981985;28;20291;-73
2021/12/14 01:50:52;;;;;;;7.17;5.80;;;;;;;3.42;100.00;99157.69;4995579;28;20205;-70
2021/12/14 01:53:22;;;;;;;6.37;5.77;;;;;;;3.43;100.00;99159.38;4989956;28;20220;-73
2021/12/14 01:55:54;;;;;;;5.60;5.20;;;;;;;3.40;100.00;99163.94;4985370;28;20213;-72
2021/12/14 01:58:24;;;;;;;5.80;5.17;;;;;;;3.40;100.00;99158.69;4991819;28;20225;-74
2021/12/14 02:00:55;;;;;;;6.77;6.17;;;;;;;3.41;100.00;99150.75;4969814;28;20236;-72
2021/12/14 02:03:31;;;;;;;8.93;5.77;;;;;;;3.46;100.00;99153.13;4980813;28;20227;-71
2021/12/14 02:06:00;;;;;;;7.27;6.30;;;;;;;3.44;100.00;99157.59;4994996;28;20693;-72
2021/12/14 02:08:32;;;;;;;7.00;6.40;;;;;;;3.42;100.00;99159.47;4989997;28;20197;-70
2021/12/14 02:11:04;;;;;;;7.70;6.90;;;;;;;3.39;100.00;99146.50;4983989;28;20217;-73
2021/12/14 02:13:34;;;;;;;7.80;5.53;;;;;;;3.46;100.00;99153.94;4991669;28;20229;-71
2021/12/14 02:16:05;;;;;;;7.83;6.07;;;;;;;3.40;100.00;99162.16;4966136;28;20650;-71
2021/12/14 02:18:56;;;;;;;6.33;5.70;;;;;;;3.38;100.00;99163.19;4977658;28;20216;-72
2021/12/14 02:21:27;;;;;;;6.67;5.77;;;;;;;3.45;100.00;99151.44;4991790;28;20245;-70
2021/12/14 02:23:57;;;;;;;5.77;5.23;;;;;;;3.37;100.00;99149.25;4994131;28;20252;-71
2021/12/14 02:26:29;;;;;;;5.50;5.00;;;;;;;3.37;100.00;99153.63;4982124;28;20221;-73
2021/12/14 02:29:01;;;;;;;6.07;5.47;;;;;;;3.37;100.00;99156.25;4993992;28;20596;-72
2021/12/14 02:31:30;;;;;;;8.20;5.13;;;;;;;3.33;100.00;99152.97;4962466;28;20227;-73
2021/12/14 02:34:02;;;;;;;6.43;5.17;;;;;;;3.40;100.00;99149.06;4981058;28;20232;-73
2021/12/14 02:36:35;;;;;;;5.77;5.17;;;;;;;3.31;100.00;99149.59;4994233;28;20569;-71
2021/12/14 02:39:10;;;;;;;6.17;4.80;;;;;;;3.30;100.00;99140.06;4991981;28;20578;-72
2021/12/14 02:41:58;;;;;;;5.13;4.67;;;;;;;3.23;100.00;99139.56;4986331;28;20223;-72
2021/12/14 02:44:26;;;;;;;5.20;4.67;;;;;;;3.15;100.00;99140.00;4993531;28;20236;-69
2021/12/14 02:47:01;;;;;;;5.60;5.10;;;;;;;3.15;100.00;99147.84;4958510;28;20237;-72
2021/12/14 02:49:31;;;;;;;6.53;5.17;;;;;;;3.14;100.00;99159.28;4983171;28;20204;-71
2021/12/14 02:52:04;;;;;;;4.87;4.47;;;;;;;3.09;100.00;99150.84;4993116;28;20208;-73
2021/12/14 02:54:41;;;;;;;6.67;5.27;;;;;;;3.07;100.00;99152.69;4993136;28;20641;-70
2021/12/14 02:57:13;;;;;;;5.40;4.90;;;;;;;3.08;100.00;99148.31;4979919;28;20217;-73
2021/12/14 02:59:43;;;;;;;4.80;4.40;;;;;;;3.03;100.00;99152.03;4992877;28;20216;-71
2021/12/14 03:02:14;;;;;;;5.43;4.47;;;;;;;2.90;100.00;99145.81;4961423;28;20220;-71
2021/12/14 03:04:44;;;;;;;5.73;5.07;;;;;;;2.93;100.00;99150.03;4978729;28;20806;-71
2021/12/14 03:07:15;;;;;;;5.47;4.87;;;;;;;2.89;100.00;99141.50;4987832;28;20217;-73
2021/12/14 03:09:56;;;;;;;6.07;5.33;;;;;;;2.87;100.00;99141.59;4974064;28;20582;-71
2021/12/14 03:12:29;;;;;;;8.33;5.07;;;;;;;2.94;100.00;99139.44;4984432;28;20697;-72
2021/12/14 03:15:00;;;;;;;5.73;4.93;;;;;;;2.90;100.00;99140.56;4988970;28;20225;-72
2021/12/14 03:17:28;;;;;;;6.43;5.70;;;;;;;2.85;100.00;99135.59;4964144;28;20668;-71
2021/12/14 03:19:58;;;;;;;7.73;5.97;;;;;;;3.01;100.00;99126.88;4983653;28;20209;-72
2021/12/14 03:22:31;;;;;;;6.07;5.47;;;;;;;2.87;100.00;99132.88;4996492;28;20478;-69
2021/12/14 03:24:59;;;;;;;6.70;6.00;;;;;;;2.86;100.00;99128.59;4994329;28;20233;-69
2021/12/14 03:27:28;;;;;;;6.40;5.67;;;;;;;2.84;100.00;99128.69;4973597;28;20233;-74
2021/12/14 03:29:56;;;;;;;7.07;5.97;;;;;;;2.84;100.00;99128.69;4991697;28;20695;-73
2021/12/14 03:32:25;;;;;;;5.83;5.37;;;;;;;2.86;100.00;99134.69;4962255;28;20224;-74
2021/12/14 03:34:54;;;;;;;6.07;5.47;;;;;;;2.83;100.00;99132.19;4986559;28;20536;-73
2021/12/14 03:37:24;;;;;;;6.73;6.00;;;;;;;2.87;100.00;99138.13;4992988;28;20213;-72
2021/12/14 03:39:58;;;;;;;6.23;5.63;;;;;;;2.86;100.00;99139.91;4994839;28;21603;-73
2021/12/14 03:42:35;;;;;;;5.83;5.33;;;;;;;2.89;100.00;99141.50;4994135;28;20580;-72
2021/12/14 03:45:07;;;;;;;5.90;5.40;;;;;;;2.86;100.00;99136.44;4981076;28;20335;-71
2021/12/14 03:47:37;;;;;;;6.07;5.17;;;;;;;2.94;100.00;99126.38;4961200;28;20475;-69
2021/12/14 03:50:11;;;;;;;6.23;5.63;;;;;;;2.95;100.00;99135.06;4987365;28;20412;-72
2021/12/14 03:52:41;;;;;;;6.93;5.47;;;;;;;2.88;100.00;99137.19;4996538;28;20209;-69
2021/12/14 03:55:14;;;;;;;6.00;5.47;;;;;;;2.85;100.00;99133.00;4992085;28;20237;-71
2021/12/14 03:57:42;;;;;;;5.20;4.70;;;;;;;2.73;100.00;99129.28;4994633;28;20204;-72
2021/12/14 04:00:15;;;;;;;5.03;4.43;;;;;;;2.63;100.00;99130.69;4983274;28;20201;-69
2021/12/14 04:02:44;;;;;;;6.03;5.53;;;;;;;2.72;100.00;99129.34;4988402;28;20212;-71
2021/12/14 04:05:12;;;;;;;5.60;4.93;;;;;;;2.67;100.00;99128.78;4960819;28;20987;-71
2021/12/14 04:07:43;;;;;;;6.53;5.40;;;;;;;2.69;100.00;99132.16;4992423;28;20225;-70
2021/12/14 04:10:15;;;;;;;6.70;5.27;;;;;;;2.71;100.00;99127.66;4993141;28;20204;-72
2021/12/14 04:12:46;;;;;;;6.10;5.50;;;;;;;2.83;100.00;99126.13;4992652;28;20224;-73
2021/12/14 04:15:14;;;;;;;5.33;4.83;;;;;;;2.83;100.00;99120.91;4991552;28;20251;-69
2021/12/14 04:17:43;;;;;;;5.57;5.03;;;;;;;2.74;100.00;99123.13;4988416;28;20209;-74
2021/12/14 04:20:14;;;;;;;5.60;5.10;;;;;;;2.77;100.00;99124.69;4962831;28;20209;-69
2021/12/14 04:22:48;;;;;;;6.27;5.67;;;;;;;2.70;100.00;99141.69;4983522;28;20228;-71
2021/12/14 04:25:20;;;;;;;6.27;5.67;;;;;;;2.70;100.00;99145.16;4991131;28;20236;-70
2021/12/14 04:27:50;;;;;;;6.67;5.97;;;;;;;2.55;100.00;99135.53;4994820;28;20737;-72
2021/12/14 04:30:21;;;;;;;5.90;5.40;;;;;;;2.63;100.00;99138.56;4993483;28;20571;-69
2021/12/14 04:32:51;;;;;;;7.47;5.20;;;;;;;2.56;100.00;99130.22;4993417;28;20201;-72
2021/12/14 04:35:20;;;;;;;4.83;4.33;;;;;;;2.62;100.00;99123.78;4964198;28;20229;-71
2021/12/14 04:37:48;;;;;;;4.77;4.37;;;;;;;2.66;100.00;99124.47;4983472;28;20216;-71
2021/12/14 04:40:37;;;;;;;5.37;4.87;;;;;;;2.56;100.00;99121.50;4994599;28;20201;-72
2021/12/14 04:54:11;;;;;;;8.17;6.47;;;;;;;2.50;100.00;99112.25;4983030;28;20236;-72
2021/12/14 04:56:46;;;;;;;7.73;6.23;;;;;;;2.47;100.00;99112.41;4992615;28;20585;-70
2021/12/14 04:59:22;;;;;;;9.63;6.70;;;;;;;2.42;100.00;99110.03;4992482;28;20618;-70
2021/12/14 05:01:52;;;;;;;8.10;6.13;;;;;;;2.35;100.00;99106.09;4991554;28;20207;-72
2021/12/14 05:04:24;;;;;;;8.40;6.57;;;;;;;2.30;100.00;99105.50;4992677;28;20233;-73
2021/12/14 05:06:57;;;;;;;7.40;6.40;;;;;;;2.24;100.00;99095.34;4959385;28;20229;-71
2021/12/14 05:09:29;;;;;;;6.53;5.80;;;;;;;2.18;100.00;99093.94;4983309;28;20216;-68
2021/12/14 05:12:02;;;;;;;10.00;6.77;;;;;;;2.17;100.00;99098.31;4986940;28;20753;-72
2021/12/14 05:14:30;;;;;;;6.83;5.60;;;;;;;2.13;100.00;99093.34;4978146;28;20316;-70
2021/12/14 05:17:02;;;;;;;7.80;6.93;;;;;;;2.17;100.00;99094.84;4995728;28;20201;-70
2021/12/14 05:19:31;;;;;;;9.83;6.00;;;;;;;2.10;100.00;99094.34;4991287;28;20488;-69
2021/12/14 05:22:03;;;;;;;9.77;7.03;;;;;;;2.11;100.00;99101.25;4959873;28;20217;-71
2021/12/14 05:24:31;;;;;;;8.13;6.27;;;;;;;2.13;100.00;99093.34;4978845;28;20411;-72
2021/12/14 05:27:03;;;;;;;7.37;6.20;;;;;;;2.17;100.00;99090.44;4993231;28;20361;-71
2021/12/14 05:29:32;;;;;;;7.60;6.33;;;;;;;2.21;100.00;99075.44;4987682;28;20275;-71
2021/12/14 05:32:01;;;;;;;6.57;5.93;;;;;;;2.18;100.00;99078.22;4994463;28;20220;-71
2021/12/14 05:34:36;;;;;;;6.97;6.07;;;;;;;2.19;100.00;99077.31;4991171;28;20282;-70
2021/12/14 05:37:05;;;;;;;6.83;6.13;;;;;;;2.20;100.00;99089.44;4994368;28;20209;-72
2021/12/14 05:45:12;;;;;;;6.67;6.03;;;;;;;2.13;100.00;99082.88;4970911;28;20290;-73
2021/12/14 05:47:45;;;;;;;7.73;5.93;;;;;;;2.16;100.00;99086.16;4994662;28;20699;-73
2021/12/14 05:50:17;;;;;;;6.67;6.07;;;;;;;2.13;100.00;99090.72;4978763;28;20580;-71
2021/12/14 05:52:45;;;;;;;6.07;4.97;;;;;;;2.13;100.00;99091.56;4994125;28;20214;-72
2021/12/14 05:55:15;;;;;;;5.57;4.97;;;;;;;2.10;100.00;99090.91;4953223;28;20247;-72
2021/12/14 05:57:44;;;;;;;5.93;5.33;;;;;;;2.19;100.00;99099.97;4991221;28;20209;-72
2021/12/14 06:00:15;;;;;;;6.67;5.77;;;;;;;2.11;100.00;99100.41;4989373;28;20217;-73
2021/12/14 06:02:43;;;;;;;6.53;5.10;;;;;;;2.07;100.00;99086.66;4984551;28;20589;-72
2021/12/14 06:05:14;;;;;;;5.50;5.00;;;;;;;2.11;100.00;99084.72;4979423;28;20491;-73
2021/12/14 06:07:43;;;;;;;6.63;5.63;;;;;;;2.08;100.00;99088.34;4994011;28;20323;-71
2021/12/14 06:10:12;;;;;;;6.80;5.63;;;;;;;2.06;100.00;99091.97;4952529;28;20593;-74
2021/12/14 06:12:42;;;;;;;5.40;4.90;;;;;;;2.07;100.00;99083.19;4991597;28;20209;-74
2021/12/14 06:15:15;;;;;;;4.43;4.13;;;;;;;2.09;100.00;99082.19;4989849;28;20233;-71
2021/12/14 06:17:43;;;;;;;5.53;4.50;;;;;;;2.10;100.00;99088.28;4982857;28;20204;-74
2021/12/14 06:20:17;;;;;;;4.20;3.73;;;;;;;2.05;100.00;99091.13;4987683;28;20829;-70
2021/12/14 06:22:47;;;;;;;4.33;3.97;;;;;;;2.01;100.00;99100.91;4993179;28;20213;-74
2021/12/14 06:25:17;;;;;;;4.30;3.90;;;;;;;2.03;100.00;99104.28;4957482;28;20756;-74
2021/12/14 06:27:47;;;;;;;4.87;4.47;;;;;;;1.99;100.00;99107.16;4983017;28;20225;-71
2021/12/14 06:30:19;;;;;;;5.13;4.13;;;;;;;2.00;100.00;99101.81;4990589;28;20514;-72
2021/12/14 06:32:55;;;;;;;6.67;4.43;;;;;;;2.10;100.00;99103.97;4983381;28;20205;-73
2021/12/14 06:35:28;;;;;;;5.07;4.40;;;;;;;2.17;100.00;99103.53;4975418;28;20466;-69
2021/12/14 06:38:23;;;;;;;5.53;5.03;;;;;;;2.26;100.00;99101.34;4987824;28;20236;-73
2021/12/14 06:40:54;;;;;;;5.77;5.23;;;;;;;2.44;100.00;99096.84;4958439;28;20216;-73
2021/12/14 06:43:25;;;;;;;5.73;5.13;;;;;;;2.59;100.00;99089.94;4980997;28;20307;-74
2021/12/14 06:45:57;;;;;;;5.27;4.77;;;;;;;2.57;100.00;99087.41;4992218;28;20224;-71
2021/12/14 06:48:30;;;;;;;6.13;5.50;;;;;;;2.51;100.00;99084.28;4979945;28;20736;-73
2021/12/14 06:51:02;;;;;;;5.83;5.33;;;;;;;2.60;100.00;99082.00;4981888;28;20221;-72
2021/12/14 06:53:30;;;;;;;6.00;4.67;;;;;;;2.54;100.00;99077.13;4995815;28;20221;-75
2021/12/14 06:56:01;;;;;;;6.27;5.00;;;;;;;2.68;100.00;99072.88;4981294;28;20267;-73
2021/12/14 06:58:31;;;;;;;5.27;4.83;;;;;;;2.66;100.00;99080.84;4977332;28;22700;-69
2021/12/14 07:01:06;;;;;;;7.13;5.87;;;;;;;2.52;100.00;99072.88;4996252;28;20201;-72
2021/12/14 07:03:43;;;;;;;6.20;5.10;;;;;;;2.62;100.00;99068.81;4986797;28;20240;-73
2021/12/14 07:06:14;;;;;;;6.10;5.03;;;;;;;2.53;100.00;99064.09;4983038;28;20434;-72
2021/12/14 07:08:42;;;;;;;6.83;6.20;;;;;;;2.45;100.00;99073.25;4993201;28;20229;-74
2021/12/14 07:11:10;;;;;;;6.27;4.80;;;;;;;2.32;100.00;99077.47;4962353;28;20582;-72
2021/12/14 07:13:41;;;;;;;6.03;5.47;;;;;;;2.30;100.00;99079.34;4987310;28;20251;-72
2021/12/14 07:16:22;;;;;;;6.03;5.43;;;;;;;2.27;100.00;99096.03;4990614;28;20599;-70
2021/12/14 07:18:54;;;;;;;5.77;4.93;;;;;;;2.44;100.00;99082.03;4994521;28;20201;-73
2021/12/14 07:21:38;;;;;;;7.03;6.40;;;;;;;2.45;100.00;99078.47;4986437;28;20204;-70
2021/12/14 07:24:32;;;;;;;6.67;5.97;;;;;;;2.42;100.00;99083.88;4993392;28;20236;-72
2021/12/14 07:27:20;;;;;;;8.23;5.80;;;;;;;2.47;100.00;99088.88;4967623;28;20205;-74
2021/12/14 07:29:49;;;;;;;6.50;5.90;;;;;;;2.45;100.00;99093.31;4984306;28;20256;-72
2021/12/14 07:32:38;;;;;;;8.67;7.77;;;;;;;2.31;100.00;99105.41;4993762;28;20201;-70
2021/12/14 07:35:36;;;;;;;6.87;6.17;;;;;;;2.39;100.00;99114.59;4984153;28;20609;-72
2021/12/14 07:38:18;;;;;;;6.87;6.17;;;;;;;2.38;100.00;99107.66;4994116;28;20271;-72
2021/12/14 07:40:49;;;;;;;5.93;5.17;;;;;;;2.34;100.00;99119.22;4993555;28;20212;-69
2021/12/14 07:43:19;;;;;;;6.37;5.80;;;;;;;2.34;100.00;99120.09;4962239;28;20915;-71
2021/12/14 07:45:57;;;;;;;7.37;6.20;;;;;;;2.39;100.00;99115.44;4988037;28;20217;-71
2021/12/14 07:48:43;;;;;;;6.17;5.57;;;;;;;2.37;100.00;99105.97;4994008;28;20224;-72
2021/12/14 07:51:12;;;;;;;6.20;5.60;;;;;;;2.29;100.00;99102.03;4980614;28;20709;-71
2021/12/14 07:53:43;;;;;;;5.87;5.23;;;;;;;2.30;100.00;99114.19;4996528;28;20224;-71
2021/12/14 07:56:36;;;;;;;5.47;4.90;;;;;;;2.30;100.00;99108.13;4990729;28;20493;-74
2021/12/14 07:59:17;;;;;;;6.07;5.43;;;;;;;2.29;100.00;99111.66;4966841;28;20308;-76
2021/12/14 08:01:46;;;;;;;7.53;4.93;;;;;;;2.28;100.00;99105.56;4996966;28;20300;-75
2021/12/14 08:04:15;;;;;;;7.37;5.63;;;;;;;2.28;100.00;99113.41;4994399;28;20264;-74
2021/12/14 08:06:53;;;;;;;4.93;4.50;;;;;;;2.35;100.00;99102.59;4986287;28;20355;-79
2021/12/14 08:09:44;;;;;;;5.90;5.40;;;;;;;2.31;100.00;99117.66;4995035;28;20512;-74
2021/12/14 08:12:28;;;;;;;6.60;5.27;;;;;;;2.35;100.00;99118.31;4992482;28;20201;-76
2021/12/14 08:15:02;;;;;;;6.40;5.53;;;;;;;2.35;100.00;99113.06;4965714;28;20246;-76
2021/12/14 08:17:31;;;;;;;6.50;5.20;;;;;;;2.40;100.00;99106.66;4995428;28;20211;-73
2021/12/14 08:20:01;;;;;;;5.83;5.03;;;;;;;2.40;100.00;99111.03;4994320;28;20569;-76
2021/12/14 08:22:49;;;;;;;5.73;4.87;;;;;;;2.47;100.00;99112.41;4982216;28;20738;-72
2021/12/14 08:25:24;;;;;;;6.30;4.80;;;;;;;2.50;100.00;99101.78;4991539;28;20358;-74
2021/12/14 08:28:01;;;;;;;5.53;5.03;;;;;;;2.56;100.00;99106.66;4994616;28;21020;-75
2021/12/14 08:30:31;;;;;;;5.87;5.27;;;;;;;2.56;100.00;99117.13;4963265;28;20316;-72
2021/12/14 08:33:00;;;;;;;5.53;5.03;;;;;;;2.65;100.00;99110.56;4997237;28;20295;-75
2021/12/14 08:35:30;;;;;;;5.33;4.83;;;;;;;2.75;100.00;99116.09;4997120;28;20820;-74
2021/12/14 08:38:03;;;;;;;5.27;4.73;;;;;;;2.63;100.00;99117.63;4994051;28;20287;-74
2021/12/14 08:40:35;;;;;;;7.33;5.53;;;;;;;2.71;100.00;99114.56;4995571;28;20209;-71
2021/12/14 08:43:11;;;;;;;7.60;5.40;;;;;;;2.63;100.00;99125.47;4996278;28;20307;-75
2021/12/14 08:45:42;;;;;;;6.37;5.77;;;;;;;2.67;100.00;99140.09;4962208;28;20224;-73
2021/12/14 08:48:13;;;;;;;6.30;5.60;;;;;;;2.60;100.00;99117.78;4995350;28;20291;-70
2021/12/14 08:50:47;;;;;;;7.47;6.77;;;;;;;2.57;100.00;99131.91;4994068;28;20721;-73
2021/12/14 08:53:16;;;;;;;6.37;5.77;;;;;;;2.56;100.00;99131.97;4975590;28;20854;-73
2021/12/14 08:55:48;;;;;;;6.13;5.53;;;;;;;2.60;100.00;99130.88;4997316;28;20212;-74
2021/12/14 08:58:16;;;;;;;4.60;4.17;;;;;;;2.68;100.00;99123.47;4996552;28;20388;-72
2021/12/14 09:00:47;;;;;;;5.57;4.80;;;;;;;2.73;100.00;99117.94;4970771;28;20224;-73
2021/12/14 09:03:43;;;;;;;6.17;4.73;;;;;;;2.71;100.00;99115.44;4992564;28;20501;-72
2021/12/14 09:06:15;;;;;;;5.73;4.70;;;;;;;2.67;100.00;99113.06;4993379;28;20209;-73
2021/12/14 09:08:45;;;;;;;5.40;4.43;;;;;;;2.81;100.00;99120.16;4994974;28;20225;-71
2021/12/14 09:11:15;;;;;;;6.53;5.00;;;;;;;2.80;100.00;99123.69;4988675;28;20212;-74
2021/12/14 09:13:43;;;;;;;6.27;5.43;;;;;;;2.79;100.00;99128.06;4997023;28;20839;-74
2021/12/14 09:16:14;;;;;;;9.50;8.40;;;;;;;2.77;100.00;99131.72;4968280;28;20221;-70
2021/12/14 09:18:44;;;;;;;10.97;8.03;;;;;;;2.65;100.00;99136.72;4997124;28;20578;-75
2021/12/14 09:21:17;;;;;;;10.03;7.47;;;;;;;2.63;100.00;99125.47;4993538;28;20465;-72
2021/12/14 09:23:49;;;;;;;8.53;7.27;;;;;;;2.70;100.00;99131.22;4995679;28;20251;-73
2021/12/14 09:26:20;;;;;;;7.00;5.80;;;;;;;2.68;100.00;99133.06;4980428;28;20755;-72
2021/12/14 09:28:49;;;;;;;6.27;5.70;;;;;;;2.78;100.00;99136.84;4994392;28;20205;-73
2021/12/14 09:31:21;;;;;;;5.40;4.87;;;;;;;2.75;100.00;99137.88;4962171;28;20260;-75
2021/12/14 09:33:51;;;;;;;5.97;5.37;;;;;;;2.71;100.00;99141.63;4996915;28;20225;-74
2021/12/14 09:36:20;;;;;;;6.43;5.03;;;;;;;2.67;100.00;99137.47;4993295;28;20703;-75
2021/12/14 09:38:52;;;;;;;6.20;5.50;;;;;;;2.73;100.00;99125.81;4997560;28;20326;-70
2021/12/14 09:41:22;;;;;;;5.40;4.90;;;;;;;2.82;100.00;99106.13;4988071;28;20232;-72
2021/12/14 09:43:52;;;;;;;4.83;4.33;;;;;;;2.87;100.00;99104.09;4995520;28;20578;-73
2021/12/14 09:46:20;;;;;;;6.70;4.87;;;;;;;3.10;100.00;99107.16;4995285;28;20278;-76
2021/12/14 09:48:50;;;;;;;6.37;5.10;;;;;;;3.14;100.00;99114.72;4970764;28;20213;-72
2021/12/14 09:51:26;;;;;;;5.43;4.63;;;;;;;3.11;100.00;99101.00;4996183;28;21115;-73
2021/12/14 09:54:00;;;;;;;7.10;5.00;;;;;;;3.21;100.00;99106.50;4995687;28;20221;-78
2021/12/14 09:56:31;;;;;;;7.17;5.33;;;;;;;3.21;100.00;99096.03;4984738;28;20355;-73
2021/12/14 09:59:01;;;;;;;5.70;5.20;;;;;;;3.24;100.00;99103.75;4991502;28;20228;-75
2021/12/14 10:01:31;;;;;;;7.43;5.70;;;;;;;3.31;100.00;99079.69;4989614;28;20538;-72
2021/12/14 10:04:06;;;;;;;7.93;5.20;;;;;;;3.44;100.00;99090.28;4963928;28;20310;-75
2021/12/14 10:06:36;;;;;;;5.60;4.83;;;;;;;3.61;100.00;99086.66;4994085;28;20282;-75
2021/12/14 10:09:08;;;;;;;8.37;5.83;;;;;;;3.72;100.00;99098.25;4988792;28;20223;-75
2021/12/14 10:11:48;;;;;;;6.63;5.93;;;;;;;3.51;100.00;99090.78;4982182;28;20681;-72
2021/12/14 10:14:17;;;;;;;9.80;6.37;;;;;;;3.54;100.00;99100.22;4989624;28;21014;-73
2021/12/14 10:16:46;;;;;;;6.30;5.43;;;;;;;3.75;100.00;99103.31;4993132;28;20558;-71
2021/12/14 10:19:18;;;;;;;8.17;5.93;;;;;;;3.75;100.00;99105.94;4959719;28;20351;-76
2021/12/14 10:21:51;;;;;;;6.50;5.73;;;;;;;3.89;100.00;99103.34;4992572;28;20216;-72
2021/12/14 10:24:19;;;;;;;6.83;5.37;;;;;;;3.92;100.00;99102.28;4992203;28;20518;-73
2021/12/14 10:26:49;;;;;;;6.90;4.63;;;;;;;3.82;100.00;99103.78;4983931;28;20217;-73
2021/12/14 10:29:18;;;;;;;5.87;4.80;;;;;;;3.90;100.00;99098.91;4992974;28;20427;-73
2021/12/14 10:31:51;;;;;;;6.13;5.53;;;;;;;3.91;100.00;99096.22;4993838;28;20205;-74
2021/12/14 10:34:22;;;;;;;6.23;4.93;;;;;;;3.83;100.00;99095.00;4963785;28;20788;-74
2021/12/14 10:37:00;;;;;;;7.60;5.77;;;;;;;3.91;100.00;99100.59;4992864;28;20208;-75
2021/12/14 10:39:39;;;;;;;9.70;5.00;;;;;;;3.97;100.00;99089.72;4992890;28;20419;-74
2021/12/14 10:45:00;;;;;;;6.57;5.27;;;;;;;3.93;100.00;99103.16;4993700;28;20220;-78
2021/12/14 10:47:29;;;;;;;9.10;6.47;;;;;;;3.96;100.00;99114.28;4992110;28;20430;-76
2021/12/14 10:50:00;;;;;;;5.30;4.70;;;;;;;4.05;100.00;99107.63;4962161;28;20335;-74
2021/12/14 10:52:31;;;;;;;7.73;5.03;;;;;;;3.94;100.00;99102.22;4993178;28;20434;-73
2021/12/14 10:55:04;;;;;;;5.13;4.30;;;;;;;4.03;100.00;99099.88;4993466;28;20260;-75
2021/12/14 10:57:35;;;;;;;4.87;4.40;;;;;;;4.17;100.00;99116.53;4997255;28;20585;-72
2021/12/14 11:00:08;;;;;;;4.93;4.33;;;;;;;3.94;100.00;99110.06;4987722;28;20487;-75
2021/12/14 11:02:41;;;;;;;5.67;3.93;;;;;;;3.89;100.00;99118.22;4995828;28;20216;-74
2021/12/14 11:05:16;;;;;;;4.97;4.47;;;;;;;3.84;100.00;99120.28;4949680;28;20235;-74
2021/12/14 11:07:48;;;;;;;5.20;4.70;;;;;;;3.79;100.00;99122.34;4990536;28;20485;-74
2021/12/14 11:10:22;;;;;;;5.83;4.30;;;;;;;3.87;100.00;99128.81;4987810;28;20455;-73
2021/12/14 11:12:54;;;;;;;8.17;4.70;;;;;;;3.81;100.00;99133.56;4993867;28;20664;-78
2021/12/14 11:15:27;;;;;;;5.17;4.40;;;;;;;3.93;100.00;99134.63;4979243;28;20233;-73
2021/12/14 11:18:11;;;;;;;5.53;5.03;;;;;;;3.81;100.00;99121.31;4993675;28;20701;-74
2021/12/14 11:20:45;;;;;;;7.37;4.77;;;;;;;3.81;100.00;99108.22;4961679;28;20212;-72
2021/12/14 11:23:17;;;;;;;6.57;4.67;;;;;;;3.75;100.00;99112.03;4988794;28;20205;-73
2021/12/14 11:26:00;;;;;;;5.77;4.63;;;;;;;3.73;100.00;99098.19;4995097;28;20572;-72
2021/12/14 11:28:33;;;;;;;6.43;5.20;;;;;;;3.74;100.00;99096.38;4994219;28;20256;-76
2021/12/14 11:31:04;;;;;;;6.60;4.63;;;;;;;3.75;100.00;99090.22;4980784;28;20711;-76
2021/12/14 11:33:35;;;;;;;5.43;4.73;;;;;;;3.84;100.00;99079.19;4993446;28;20268;-71
2021/12/14 11:36:10;;;;;;;5.93;5.00;;;;;;;3.79;100.00;99070.75;4961965;28;20288;-77
2021/12/14 11:38:42;;;;;;;6.93;4.43;;;;;;;3.86;100.00;99073.81;4995158;28;20269;-75
2021/12/14 11:41:24;;;;;;;4.93;4.53;;;;;;;3.90;100.00;99078.78;4991411;28;20595;-73
2021/12/14 11:43:56;;;;;;;4.53;4.13;;;;;;;3.79;100.00;99070.75;4997125;28;20423;-75
2021/12/14 11:46:25;;;;;;;6.97;4.77;;;;;;;3.89;100.00;99066.63;4984133;28;21143;-72
2021/12/14 11:48:58;;;;;;;5.90;5.17;;;;;;;3.98;100.00;99065.22;4990029;28;20231;-75
2021/12/14 11:51:29;;;;;;;5.40;4.90;;;;;;;3.99;100.00;99066.03;4983427;28;20452;-75
2021/12/14 11:54:00;;;;;;;6.57;5.50;;;;;;;4.03;100.00;99072.78;4994261;28;20243;-76
2021/12/14 11:56:31;;;;;;;7.57;5.20;;;;;;;4.03;100.00;99059.66;4994939;28;20392;-75
2021/12/14 11:59:01;;;;;;;5.57;4.60;;;;;;;4.00;100.00;99059.84;4995458;28;20216;-76
2021/12/14 12:01:32;;;;;;;6.00;5.07;;;;;;;4.03;100.00;99067.53;4984103;28;20229;-75
2021/12/14 12:04:05;;;;;;;5.67;5.03;;;;;;;3.94;100.00;99068.94;4971773;28;20229;-75
2021/12/14 12:09:28;;;;;;;6.00;5.47;;;;;;;4.00;100.00;99073.84;4994398;28;20671;-75
2021/12/14 12:09:41;;;;;;;7.03;5.77;;;;;;;3.98;100.00;99074.84;4996522;28;20205;-73
2021/12/14 12:12:16;;;;;;;5.27;4.77;;;;;;;4.08;100.00;99090.88;4993842;28;20217;-73
2021/12/14 12:14:49;;;;;;;5.37;4.83;;;;;;;4.10;100.00;99087.19;4995686;28;20220;-74
2021/12/14 12:17:25;;;;;;;4.80;4.37;;;;;;;4.17;100.00;99082.41;4982560;28;20883;-73
2021/12/14 12:20:03;;;;;;;6.63;5.30;;;;;;;4.12;100.00;99076.63;4988300;28;20220;-76